sensor_id;sensor_type;location;lat;lon;timestamp;P1;durP1;ratioP1;P2;durP2;ratioP2
19396;SDS011;9834;48.076;11.878;2023-05-16T00:05:01;1.93;;;1.67;;
19396;SDS011;9834;48.076;11.878;2023-05-16T00:07:28;1.97;;;1.77;;
19396;SDS011;9834;48.076;11.878;2023-05-16T00:09:55;3.30;;;2.37;;
19396;SDS011;9834;48.076;11.878;2023-05-16T00:12:22;1.80;;;1.70;;
19396;SDS011;9834;48.076;11.878;2023-05-16T00:14:49;2.33;;;2.13;;
19396;SDS011;9834;48.076;11.878;2023-05-16T00:17:16;1.77;;;1.67;;
19396;SDS011;9834;48.076;11.878;2023-05-16T00:19:46;3.00;;;2.30;;
19396;SDS011;9834;48.076;11.878;2023-05-16T00:22:13;2.13;;;1.93;;
19396;SDS011;9834;48.076;11.878;2023-05-16T00:24:40;2.13;;;1.93;;
19396;SDS011;9834;48.076;11.878;2023-05-16T00:27:07;2.70;;;2.03;;
19396;SDS011;9834;48.076;11.878;2023-05-16T00:29:34;2.83;;;2.37;;
19396;SDS011;9834;48.076;11.878;2023-05-16T00:32:01;2.80;;;2.57;;
19396;SDS011;9834;48.076;11.878;2023-05-16T00:34:28;4.77;;;2.10;;
19396;SDS011;9834;48.076;11.878;2023-05-16T00:36:56;3.03;;;2.43;;
19396;SDS011;9834;48.076;11.878;2023-05-16T00:39:23;1.80;;;1.70;;
19396;SDS011;9834;48.076;11.878;2023-05-16T00:41:51;1.57;;;1.47;;
19396;SDS011;9834;48.076;11.878;2023-05-16T00:44:18;2.27;;;2.07;;
19396;SDS011;9834;48.076;11.878;2023-05-16T00:46:45;2.73;;;1.97;;
19396;SDS011;9834;48.076;11.878;2023-05-16T00:49:12;2.57;;;2.20;;
19396;SDS011;9834;48.076;11.878;2023-05-16T00:51:39;2.40;;;2.20;;
19396;SDS011;9834;48.076;11.878;2023-05-16T00:54:08;2.47;;;2.00;;
19396;SDS011;9834;48.076;11.878;2023-05-16T00:56:36;2.40;;;2.23;;
19396;SDS011;9834;48.076;11.878;2023-05-16T00:59:03;2.20;;;2.10;;
19396;SDS011;9834;48.076;11.878;2023-05-16T01:01:31;2.73;;;2.53;;
19396;SDS011;9834;48.076;11.878;2023-05-16T01:03:58;2.63;;;2.20;;
19396;SDS011;9834;48.076;11.878;2023-05-16T01:06:25;10.77;;;2.03;;
19396;SDS011;9834;48.076;11.878;2023-05-16T01:08:52;2.00;;;1.87;;
19396;SDS011;9834;48.076;11.878;2023-05-16T01:11:24;2.70;;;2.43;;
19396;SDS011;9834;48.076;11.878;2023-05-16T01:13:58;1.70;;;1.60;;
19396;SDS011;9834;48.076;11.878;2023-05-16T01:16:32;3.23;;;2.13;;
19396;SDS011;9834;48.076;11.878;2023-05-16T01:19:06;2.67;;;2.07;;
19396;SDS011;9834;48.076;11.878;2023-05-16T01:21:47;1.50;;;1.47;;
19396;SDS011;9834;48.076;11.878;2023-05-16T01:24:21;2.93;;;2.47;;
19396;SDS011;9834;48.076;11.878;2023-05-16T01:26:54;3.07;;;2.70;;
19396;SDS011;9834;48.076;11.878;2023-05-16T01:29:22;2.53;;;2.20;;
19396;SDS011;9834;48.076;11.878;2023-05-16T01:31:50;2.53;;;2.23;;
19396;SDS011;9834;48.076;11.878;2023-05-16T01:34:17;2.83;;;2.30;;
19396;SDS011;9834;48.076;11.878;2023-05-16T01:36:46;1.97;;;1.80;;
19396;SDS011;9834;48.076;11.878;2023-05-16T01:39:19;2.43;;;2.23;;
19396;SDS011;9834;48.076;11.878;2023-05-16T01:41:54;2.60;;;2.37;;
19396;SDS011;9834;48.076;11.878;2023-05-16T01:44:30;2.70;;;2.50;;
19396;SDS011;9834;48.076;11.878;2023-05-16T01:47:01;2.00;;;1.87;;
19396;SDS011;9834;48.076;11.878;2023-05-16T01:49:33;2.40;;;2.20;;
19396;SDS011;9834;48.076;11.878;2023-05-16T01:52:04;4.03;;;2.27;;
19396;SDS011;9834;48.076;11.878;2023-05-16T01:54:35;2.83;;;2.20;;
19396;SDS011;9834;48.076;11.878;2023-05-16T01:57:07;2.60;;;2.40;;
19396;SDS011;9834;48.076;11.878;2023-05-16T01:59:35;2.33;;;2.17;;
19396;SDS011;9834;48.076;11.878;2023-05-16T02:02:03;3.73;;;2.73;;
19396;SDS011;9834;48.076;11.878;2023-05-16T02:04:31;4.07;;;2.50;;
19396;SDS011;9834;48.076;11.878;2023-05-16T02:06:58;3.57;;;2.77;;
19396;SDS011;9834;48.076;11.878;2023-05-16T02:09:26;2.43;;;2.23;;
19396;SDS011;9834;48.076;11.878;2023-05-16T02:11:53;2.87;;;2.57;;
19396;SDS011;9834;48.076;11.878;2023-05-16T02:14:21;2.90;;;2.43;;
19396;SDS011;9834;48.076;11.878;2023-05-16T02:16:49;3.67;;;3.00;;
19396;SDS011;9834;48.076;11.878;2023-05-16T02:19:17;2.40;;;2.17;;
19396;SDS011;9834;48.076;11.878;2023-05-16T02:21:44;5.47;;;3.37;;
19396;SDS011;9834;48.076;11.878;2023-05-16T02:24:11;4.57;;;2.53;;
19396;SDS011;9834;48.076;11.878;2023-05-16T02:26:38;4.27;;;2.87;;
19396;SDS011;9834;48.076;11.878;2023-05-16T02:29:05;2.53;;;2.33;;
19396;SDS011;9834;48.076;11.878;2023-05-16T02:31:34;2.50;;;2.30;;
19396;SDS011;9834;48.076;11.878;2023-05-16T02:34:01;2.83;;;2.57;;
19396;SDS011;9834;48.076;11.878;2023-05-16T02:36:28;6.97;;;3.03;;
19396;SDS011;9834;48.076;11.878;2023-05-16T02:38:56;2.60;;;2.40;;
19396;SDS011;9834;48.076;11.878;2023-05-16T02:41:22;3.33;;;3.07;;
19396;SDS011;9834;48.076;11.878;2023-05-16T02:43:50;4.33;;;3.03;;
19396;SDS011;9834;48.076;11.878;2023-05-16T02:46:24;2.13;;;1.93;;
19396;SDS011;9834;48.076;11.878;2023-05-16T02:48:56;2.90;;;2.53;;
19396;SDS011;9834;48.076;11.878;2023-05-16T02:51:24;2.90;;;2.30;;
19396;SDS011;9834;48.076;11.878;2023-05-16T02:53:52;2.57;;;2.37;;
19396;SDS011;9834;48.076;11.878;2023-05-16T02:56:23;3.23;;;2.53;;
19396;SDS011;9834;48.076;11.878;2023-05-16T02:58:52;2.50;;;2.30;;
19396;SDS011;9834;48.076;11.878;2023-05-16T03:01:19;2.63;;;2.43;;
19396;SDS011;9834;48.076;11.878;2023-05-16T03:03:46;4.43;;;2.43;;
19396;SDS011;9834;48.076;11.878;2023-05-16T03:06:14;2.77;;;2.50;;
19396;SDS011;9834;48.076;11.878;2023-05-16T03:08:42;3.23;;;2.93;;
19396;SDS011;9834;48.076;11.878;2023-05-16T03:11:09;5.37;;;3.27;;
19396;SDS011;9834;48.076;11.878;2023-05-16T03:13:36;7.67;;;3.23;;
19396;SDS011;9834;48.076;11.878;2023-05-16T03:16:03;3.27;;;2.97;;
19396;SDS011;9834;48.076;11.878;2023-05-16T03:18:31;7.17;;;3.50;;
19396;SDS011;9834;48.076;11.878;2023-05-16T03:20:58;3.60;;;3.03;;
19396;SDS011;9834;48.076;11.878;2023-05-16T03:23:28;5.17;;;3.10;;
19396;SDS011;9834;48.076;11.878;2023-05-16T03:25:56;5.23;;;3.00;;
19396;SDS011;9834;48.076;11.878;2023-05-16T03:28:23;3.77;;;3.07;;
19396;SDS011;9834;48.076;11.878;2023-05-16T03:30:52;3.20;;;2.83;;
19396;SDS011;9834;48.076;11.878;2023-05-16T03:33:19;2.40;;;2.20;;
19396;SDS011;9834;48.076;11.878;2023-05-16T03:35:47;3.13;;;2.83;;
19396;SDS011;9834;48.076;11.878;2023-05-16T03:38:14;3.30;;;3.00;;
19396;SDS011;9834;48.076;11.878;2023-05-16T03:40:44;6.10;;;3.10;;
19396;SDS011;9834;48.076;11.878;2023-05-16T03:43:11;4.10;;;3.40;;
19396;SDS011;9834;48.076;11.878;2023-05-16T03:45:38;3.20;;;2.77;;
19396;SDS011;9834;48.076;11.878;2023-05-16T03:48:08;3.07;;;2.50;;
19396;SDS011;9834;48.076;11.878;2023-05-16T03:50:35;3.47;;;2.33;;
19396;SDS011;9834;48.076;11.878;2023-05-16T03:53:03;2.83;;;2.63;;
19396;SDS011;9834;48.076;11.878;2023-05-16T03:55:30;3.27;;;2.80;;
19396;SDS011;9834;48.076;11.878;2023-05-16T03:57:58;3.20;;;2.70;;
19396;SDS011;9834;48.076;11.878;2023-05-16T04:00:25;3.27;;;2.97;;
19396;SDS011;9834;48.076;11.878;2023-05-16T04:02:53;3.90;;;3.27;;
19396;SDS011;9834;48.076;11.878;2023-05-16T04:05:19;4.43;;;3.17;;
19396;SDS011;9834;48.076;11.878;2023-05-16T04:07:46;3.50;;;3.07;;
19396;SDS011;9834;48.076;11.878;2023-05-16T04:10:13;3.53;;;3.30;;
19396;SDS011;9834;48.076;11.878;2023-05-16T04:12:40;4.87;;;3.43;;
19396;SDS011;9834;48.076;11.878;2023-05-16T04:15:10;3.33;;;2.60;;
19396;SDS011;9834;48.076;11.878;2023-05-16T04:17:37;4.67;;;3.53;;
19396;SDS011;9834;48.076;11.878;2023-05-16T04:20:04;3.60;;;3.27;;
19396;SDS011;9834;48.076;11.878;2023-05-16T04:22:32;5.53;;;3.23;;
19396;SDS011;9834;48.076;11.878;2023-05-16T04:24:59;4.77;;;3.07;;
19396;SDS011;9834;48.076;11.878;2023-05-16T04:27:26;3.03;;;2.77;;
19396;SDS011;9834;48.076;11.878;2023-05-16T04:29:54;3.77;;;3.10;;
19396;SDS011;9834;48.076;11.878;2023-05-16T04:32:24;5.30;;;3.47;;
19396;SDS011;9834;48.076;11.878;2023-05-16T04:34:52;3.53;;;3.23;;
19396;SDS011;9834;48.076;11.878;2023-05-16T04:37:20;4.03;;;3.63;;
19396;SDS011;9834;48.076;11.878;2023-05-16T04:39:47;4.10;;;3.37;;
19396;SDS011;9834;48.076;11.878;2023-05-16T04:42:15;3.97;;;3.47;;
19396;SDS011;9834;48.076;11.878;2023-05-16T04:44:42;4.50;;;3.43;;
19396;SDS011;9834;48.076;11.878;2023-05-16T04:47:09;2.47;;;2.37;;
19396;SDS011;9834;48.076;11.878;2023-05-16T04:49:37;4.17;;;3.77;;
19396;SDS011;9834;48.076;11.878;2023-05-16T04:52:05;8.43;;;5.63;;
19396;SDS011;9834;48.076;11.878;2023-05-16T04:54:33;7.43;;;3.60;;
19396;SDS011;9834;48.076;11.878;2023-05-16T04:57:00;3.33;;;3.00;;
19396;SDS011;9834;48.076;11.878;2023-05-16T04:59:27;11.63;;;7.30;;
19396;SDS011;9834;48.076;11.878;2023-05-16T05:01:53;22.33;;;12.77;;
19396;SDS011;9834;48.076;11.878;2023-05-16T05:04:20;19.70;;;13.40;;
19396;SDS011;9834;48.076;11.878;2023-05-16T05:06:49;13.80;;;8.80;;
19396;SDS011;9834;48.076;11.878;2023-05-16T05:09:16;10.67;;;8.93;;
19396;SDS011;9834;48.076;11.878;2023-05-16T05:11:43;7.67;;;5.40;;
19396;SDS011;9834;48.076;11.878;2023-05-16T05:14:10;6.90;;;5.70;;
19396;SDS011;9834;48.076;11.878;2023-05-16T05:16:37;7.40;;;5.30;;
19396;SDS011;9834;48.076;11.878;2023-05-16T05:19:05;6.30;;;4.90;;
19396;SDS011;9834;48.076;11.878;2023-05-16T05:21:33;5.27;;;4.67;;
19396;SDS011;9834;48.076;11.878;2023-05-16T05:24:01;5.77;;;5.17;;
19396;SDS011;9834;48.076;11.878;2023-05-16T05:26:28;10.00;;;5.90;;
19396;SDS011;9834;48.076;11.878;2023-05-16T05:28:55;3.80;;;3.50;;
19396;SDS011;9834;48.076;11.878;2023-05-16T05:31:22;5.90;;;4.43;;
19396;SDS011;9834;48.076;11.878;2023-05-16T05:33:49;4.67;;;3.97;;
19396;SDS011;9834;48.076;11.878;2023-05-16T05:36:16;4.00;;;3.60;;
19396;SDS011;9834;48.076;11.878;2023-05-16T05:38:43;6.60;;;4.17;;
19396;SDS011;9834;48.076;11.878;2023-05-16T05:41:12;4.43;;;3.63;;
19396;SDS011;9834;48.076;11.878;2023-05-16T05:43:39;4.50;;;3.70;;
19396;SDS011;9834;48.076;11.878;2023-05-16T05:46:06;6.00;;;4.00;;
19396;SDS011;9834;48.076;11.878;2023-05-16T05:48:33;5.10;;;3.73;;
19396;SDS011;9834;48.076;11.878;2023-05-16T05:51:00;5.30;;;4.80;;
19396;SDS011;9834;48.076;11.878;2023-05-16T05:53:28;4.77;;;3.73;;
19396;SDS011;9834;48.076;11.878;2023-05-16T05:55:56;5.93;;;4.43;;
19396;SDS011;9834;48.076;11.878;2023-05-16T05:58:24;3.70;;;3.37;;
19396;SDS011;9834;48.076;11.878;2023-05-16T06:00:51;5.97;;;3.90;;
19396;SDS011;9834;48.076;11.878;2023-05-16T06:03:18;4.93;;;4.10;;
19396;SDS011;9834;48.076;11.878;2023-05-16T06:05:46;4.00;;;3.47;;
19396;SDS011;9834;48.076;11.878;2023-05-16T06:08:13;4.27;;;3.87;;
19396;SDS011;9834;48.076;11.878;2023-05-16T06:10:39;7.90;;;4.23;;
19396;SDS011;9834;48.076;11.878;2023-05-16T06:13:06;4.33;;;3.63;;
19396;SDS011;9834;48.076;11.878;2023-05-16T06:15:35;6.53;;;4.47;;
19396;SDS011;9834;48.076;11.878;2023-05-16T06:18:02;7.77;;;4.67;;
19396;SDS011;9834;48.076;11.878;2023-05-16T06:20:29;5.70;;;3.97;;
19396;SDS011;9834;48.076;11.878;2023-05-16T06:22:56;4.47;;;3.87;;
19396;SDS011;9834;48.076;11.878;2023-05-16T06:25:24;4.50;;;4.03;;
19396;SDS011;9834;48.076;11.878;2023-05-16T06:27:51;7.47;;;4.90;;
19396;SDS011;9834;48.076;11.878;2023-05-16T06:30:18;4.73;;;4.20;;
19396;SDS011;9834;48.076;11.878;2023-05-16T06:32:46;5.83;;;4.47;;
19396;SDS011;9834;48.076;11.878;2023-05-16T06:35:14;5.37;;;4.80;;
19396;SDS011;9834;48.076;11.878;2023-05-16T06:37:41;8.13;;;5.67;;
19396;SDS011;9834;48.076;11.878;2023-05-16T06:40:08;4.27;;;3.97;;
19396;SDS011;9834;48.076;11.878;2023-05-16T06:42:37;6.90;;;5.53;;
19396;SDS011;9834;48.076;11.878;2023-05-16T06:45:04;7.10;;;5.10;;
19396;SDS011;9834;48.076;11.878;2023-05-16T06:47:32;4.60;;;4.17;;
19396;SDS011;9834;48.076;11.878;2023-05-16T06:50:01;5.00;;;4.53;;
19396;SDS011;9834;48.076;11.878;2023-05-16T06:52:28;8.50;;;6.00;;
19396;SDS011;9834;48.076;11.878;2023-05-16T06:54:55;7.50;;;4.80;;
19396;SDS011;9834;48.076;11.878;2023-05-16T06:57:22;6.10;;;4.40;;
19396;SDS011;9834;48.076;11.878;2023-05-16T06:59:49;6.60;;;5.13;;
19396;SDS011;9834;48.076;11.878;2023-05-16T07:02:16;7.70;;;5.57;;
19396;SDS011;9834;48.076;11.878;2023-05-16T07:04:43;8.73;;;5.77;;
19396;SDS011;9834;48.076;11.878;2023-05-16T07:07:12;7.17;;;5.03;;
19396;SDS011;9834;48.076;11.878;2023-05-16T07:09:39;6.87;;;5.40;;
19396;SDS011;9834;48.076;11.878;2023-05-16T07:12:07;8.87;;;6.17;;
19396;SDS011;9834;48.076;11.878;2023-05-16T07:14:34;6.43;;;5.83;;
19396;SDS011;9834;48.076;11.878;2023-05-16T07:17:01;6.23;;;5.40;;
19396;SDS011;9834;48.076;11.878;2023-05-16T07:19:28;8.60;;;6.87;;
19396;SDS011;9834;48.076;11.878;2023-05-16T07:21:55;6.97;;;5.40;;
19396;SDS011;9834;48.076;11.878;2023-05-16T07:24:24;6.50;;;5.33;;
19396;SDS011;9834;48.076;11.878;2023-05-16T07:26:51;7.77;;;6.27;;
19396;SDS011;9834;48.076;11.878;2023-05-16T07:29:18;6.67;;;5.30;;
19396;SDS011;9834;48.076;11.878;2023-05-16T07:31:45;7.63;;;5.13;;
19396;SDS011;9834;48.076;11.878;2023-05-16T07:34:12;7.80;;;5.80;;
19396;SDS011;9834;48.076;11.878;2023-05-16T07:36:39;12.10;;;6.30;;
19396;SDS011;9834;48.076;11.878;2023-05-16T07:39:06;5.37;;;4.93;;
19396;SDS011;9834;48.076;11.878;2023-05-16T07:41:34;10.17;;;6.07;;
19396;SDS011;9834;48.076;11.878;2023-05-16T07:44:01;12.37;;;6.70;;
19396;SDS011;9834;48.076;11.878;2023-05-16T07:46:28;10.67;;;5.77;;
19396;SDS011;9834;48.076;11.878;2023-05-16T07:48:55;5.93;;;5.37;;
19396;SDS011;9834;48.076;11.878;2023-05-16T07:51:22;7.50;;;6.07;;
19396;SDS011;9834;48.076;11.878;2023-05-16T07:53:49;15.93;;;6.93;;
19396;SDS011;9834;48.076;11.878;2023-05-16T07:56:16;10.40;;;5.00;;
19396;SDS011;9834;48.076;11.878;2023-05-16T07:58:45;9.83;;;6.27;;
19396;SDS011;9834;48.076;11.878;2023-05-16T08:01:12;8.93;;;6.30;;
19396;SDS011;9834;48.076;11.878;2023-05-16T08:03:41;7.77;;;5.57;;
19396;SDS011;9834;48.076;11.878;2023-05-16T08:06:08;7.27;;;6.27;;
19396;SDS011;9834;48.076;11.878;2023-05-16T08:08:35;13.77;;;5.40;;
19396;SDS011;9834;48.076;11.878;2023-05-16T08:11:02;8.73;;;5.43;;
19396;SDS011;9834;48.076;11.878;2023-05-16T08:13:30;6.27;;;5.37;;
19396;SDS011;9834;48.076;11.878;2023-05-16T08:15:58;12.17;;;6.10;;
19396;SDS011;9834;48.076;11.878;2023-05-16T08:18:25;8.80;;;5.43;;
19396;SDS011;9834;48.076;11.878;2023-05-16T08:20:52;6.33;;;5.73;;
19396;SDS011;9834;48.076;11.878;2023-05-16T08:23:19;7.67;;;5.50;;
19396;SDS011;9834;48.076;11.878;2023-05-16T08:25:47;8.50;;;7.43;;
19396;SDS011;9834;48.076;11.878;2023-05-16T08:28:14;7.47;;;6.43;;
19396;SDS011;9834;48.076;11.878;2023-05-16T08:30:41;5.97;;;5.40;;
19396;SDS011;9834;48.076;11.878;2023-05-16T08:33:10;12.40;;;5.73;;
19396;SDS011;9834;48.076;11.878;2023-05-16T08:35:36;8.43;;;6.60;;
19396;SDS011;9834;48.076;11.878;2023-05-16T08:38:07;5.20;;;4.60;;
19396;SDS011;9834;48.076;11.878;2023-05-16T08:40:34;7.87;;;5.30;;
19396;SDS011;9834;48.076;11.878;2023-05-16T08:43:01;6.40;;;5.57;;
19396;SDS011;9834;48.076;11.878;2023-05-16T08:45:29;5.27;;;4.77;;
19396;SDS011;9834;48.076;11.878;2023-05-16T08:47:56;6.07;;;5.47;;
19396;SDS011;9834;48.076;11.878;2023-05-16T08:50:29;6.50;;;5.90;;
19396;SDS011;9834;48.076;11.878;2023-05-16T08:52:57;9.60;;;6.30;;
19396;SDS011;9834;48.076;11.878;2023-05-16T08:55:31;9.53;;;6.63;;
19396;SDS011;9834;48.076;11.878;2023-05-16T08:57:58;9.70;;;7.03;;
19396;SDS011;9834;48.076;11.878;2023-05-16T09:00:26;12.20;;;7.53;;
19396;SDS011;9834;48.076;11.878;2023-05-16T09:02:53;6.87;;;6.13;;
19396;SDS011;9834;48.076;11.878;2023-05-16T09:05:20;5.27;;;4.67;;
19396;SDS011;9834;48.076;11.878;2023-05-16T09:07:50;5.63;;;5.10;;
19396;SDS011;9834;48.076;11.878;2023-05-16T09:10:17;6.17;;;5.57;;
19396;SDS011;9834;48.076;11.878;2023-05-16T09:12:44;6.07;;;4.70;;
19396;SDS011;9834;48.076;11.878;2023-05-16T09:15:12;6.63;;;5.97;;
19396;SDS011;9834;48.076;11.878;2023-05-16T09:17:39;5.47;;;4.97;;
19396;SDS011;9834;48.076;11.878;2023-05-16T09:20:08;5.10;;;4.60;;
19396;SDS011;9834;48.076;11.878;2023-05-16T09:22:36;8.17;;;6.23;;
19396;SDS011;9834;48.076;11.878;2023-05-16T09:25:06;13.53;;;5.83;;
19396;SDS011;9834;48.076;11.878;2023-05-16T09:27:33;4.43;;;4.00;;
19396;SDS011;9834;48.076;11.878;2023-05-16T09:30:00;5.30;;;4.80;;
19396;SDS011;9834;48.076;11.878;2023-05-16T09:32:28;5.37;;;4.57;;
19396;SDS011;9834;48.076;11.878;2023-05-16T09:34:57;5.20;;;4.70;;
19396;SDS011;9834;48.076;11.878;2023-05-16T09:37:24;7.90;;;4.60;;
19396;SDS011;9834;48.076;11.878;2023-05-16T09:39:52;3.70;;;3.33;;
19396;SDS011;9834;48.076;11.878;2023-05-16T09:42:21;4.67;;;4.27;;
19396;SDS011;9834;48.076;11.878;2023-05-16T09:44:48;5.17;;;4.63;;
19396;SDS011;9834;48.076;11.878;2023-05-16T09:47:17;5.53;;;4.43;;
19396;SDS011;9834;48.076;11.878;2023-05-16T09:49:45;4.10;;;3.70;;
19396;SDS011;9834;48.076;11.878;2023-05-16T09:52:13;4.50;;;4.10;;
19396;SDS011;9834;48.076;11.878;2023-05-16T09:54:41;6.87;;;4.67;;
19396;SDS011;9834;48.076;11.878;2023-05-16T09:57:09;6.10;;;4.90;;
19396;SDS011;9834;48.076;11.878;2023-05-16T09:59:37;5.87;;;5.27;;
19396;SDS011;9834;48.076;11.878;2023-05-16T10:02:05;5.73;;;5.17;;
19396;SDS011;9834;48.076;11.878;2023-05-16T10:04:33;5.77;;;5.23;;
19396;SDS011;9834;48.076;11.878;2023-05-16T10:07:01;8.90;;;4.33;;
19396;SDS011;9834;48.076;11.878;2023-05-16T10:09:30;5.37;;;4.63;;
19396;SDS011;9834;48.076;11.878;2023-05-16T10:11:59;5.37;;;4.67;;
19396;SDS011;9834;48.076;11.878;2023-05-16T10:14:29;5.03;;;4.60;;
19396;SDS011;9834;48.076;11.878;2023-05-16T10:17:00;9.13;;;5.50;;
19396;SDS011;9834;48.076;11.878;2023-05-16T10:19:29;5.10;;;4.60;;
19396;SDS011;9834;48.076;11.878;2023-05-16T10:21:59;6.53;;;5.27;;
19396;SDS011;9834;48.076;11.878;2023-05-16T10:24:30;7.00;;;5.07;;
19396;SDS011;9834;48.076;11.878;2023-05-16T10:27:04;5.27;;;4.83;;
19396;SDS011;9834;48.076;11.878;2023-05-16T10:29:32;4.83;;;4.43;;
19396;SDS011;9834;48.076;11.878;2023-05-16T10:32:00;9.93;;;5.53;;
19396;SDS011;9834;48.076;11.878;2023-05-16T10:34:30;5.97;;;5.47;;
19396;SDS011;9834;48.076;11.878;2023-05-16T10:36:58;6.87;;;6.17;;
19396;SDS011;9834;48.076;11.878;2023-05-16T10:39:26;6.13;;;5.63;;
19396;SDS011;9834;48.076;11.878;2023-05-16T10:41:54;7.00;;;5.93;;
19396;SDS011;9834;48.076;11.878;2023-05-16T10:44:21;7.53;;;6.10;;
19396;SDS011;9834;48.076;11.878;2023-05-16T10:46:48;5.17;;;4.67;;
19396;SDS011;9834;48.076;11.878;2023-05-16T10:49:20;6.27;;;5.70;;
19396;SDS011;9834;48.076;11.878;2023-05-16T10:52:00;6.43;;;5.83;;
19396;SDS011;9834;48.076;11.878;2023-05-16T10:54:33;7.23;;;6.30;;
19396;SDS011;9834;48.076;11.878;2023-05-16T10:57:03;7.03;;;5.20;;
19396;SDS011;9834;48.076;11.878;2023-05-16T10:59:38;5.80;;;5.30;;
19396;SDS011;9834;48.076;11.878;2023-05-16T11:02:20;12.53;;;6.03;;
19396;SDS011;9834;48.076;11.878;2023-05-16T11:04:50;5.90;;;4.30;;
19396;SDS011;9834;48.076;11.878;2023-05-16T11:07:18;7.77;;;6.73;;
19396;SDS011;9834;48.076;11.878;2023-05-16T11:09:52;8.40;;;6.50;;
19396;SDS011;9834;48.076;11.878;2023-05-16T11:12:35;6.60;;;5.90;;
19396;SDS011;9834;48.076;11.878;2023-05-16T11:15:16;6.47;;;5.87;;
19396;SDS011;9834;48.076;11.878;2023-05-16T11:17:44;5.80;;;5.30;;
19396;SDS011;9834;48.076;11.878;2023-05-16T11:20:25;8.17;;;6.23;;
19396;SDS011;9834;48.076;11.878;2023-05-16T11:25:53;8.13;;;5.70;;
19396;SDS011;9834;48.076;11.878;2023-05-16T11:28:23;8.30;;;6.77;;
19396;SDS011;9834;48.076;11.878;2023-05-16T11:30:51;7.83;;;6.33;;
19396;SDS011;9834;48.076;11.878;2023-05-16T11:33:21;7.40;;;6.70;;
19396;SDS011;9834;48.076;11.878;2023-05-16T11:36:05;7.23;;;6.57;;
19396;SDS011;9834;48.076;11.878;2023-05-16T11:38:34;9.90;;;7.17;;
19396;SDS011;9834;48.076;11.878;2023-05-16T11:41:04;10.90;;;8.33;;
19396;SDS011;9834;48.076;11.878;2023-05-16T11:43:38;9.67;;;7.60;;
19396;SDS011;9834;48.076;11.878;2023-05-16T11:46:06;7.97;;;7.17;;
19396;SDS011;9834;48.076;11.878;2023-05-16T11:48:36;11.00;;;9.53;;
19396;SDS011;9834;48.076;11.878;2023-05-16T11:51:05;11.13;;;9.23;;
19396;SDS011;9834;48.076;11.878;2023-05-16T11:53:32;11.97;;;10.23;;
19396;SDS011;9834;48.076;11.878;2023-05-16T11:55:59;14.77;;;11.03;;
19396;SDS011;9834;48.076;11.878;2023-05-16T11:58:27;12.23;;;10.40;;
19396;SDS011;9834;48.076;11.878;2023-05-16T12:00:55;14.27;;;11.43;;
19396;SDS011;9834;48.076;11.878;2023-05-16T12:03:22;12.90;;;11.07;;
19396;SDS011;9834;48.076;11.878;2023-05-16T12:05:49;13.70;;;11.13;;
19396;SDS011;9834;48.076;11.878;2023-05-16T12:08:19;13.23;;;10.57;;
19396;SDS011;9834;48.076;11.878;2023-05-16T12:10:49;13.53;;;10.63;;
19396;SDS011;9834;48.076;11.878;2023-05-16T12:13:17;13.87;;;10.87;;
19396;SDS011;9834;48.076;11.878;2023-05-16T12:15:45;13.20;;;11.23;;
19396;SDS011;9834;48.076;11.878;2023-05-16T12:18:12;13.10;;;11.70;;
19396;SDS011;9834;48.076;11.878;2023-05-16T12:20:40;11.47;;;10.20;;
19396;SDS011;9834;48.076;11.878;2023-05-16T12:23:09;11.57;;;10.13;;
19396;SDS011;9834;48.076;11.878;2023-05-16T12:25:39;11.17;;;9.40;;
19396;SDS011;9834;48.076;11.878;2023-05-16T12:28:11;15.03;;;9.80;;
19396;SDS011;9834;48.076;11.878;2023-05-16T12:30:39;12.67;;;10.13;;
19396;SDS011;9834;48.076;11.878;2023-05-16T12:33:08;13.73;;;11.33;;
19396;SDS011;9834;48.076;11.878;2023-05-16T12:35:36;11.27;;;10.00;;
19396;SDS011;9834;48.076;11.878;2023-05-16T12:38:06;13.87;;;10.73;;
19396;SDS011;9834;48.076;11.878;2023-05-16T12:40:35;10.77;;;9.67;;
19396;SDS011;9834;48.076;11.878;2023-05-16T12:43:04;12.07;;;10.37;;
19396;SDS011;9834;48.076;11.878;2023-05-16T12:45:39;9.93;;;8.90;;
19396;SDS011;9834;48.076;11.878;2023-05-16T12:48:10;9.00;;;8.13;;
19396;SDS011;9834;48.076;11.878;2023-05-16T12:50:38;10.37;;;9.27;;
19396;SDS011;9834;48.076;11.878;2023-05-16T12:53:09;12.27;;;9.47;;
19396;SDS011;9834;48.076;11.878;2023-05-16T12:55:37;14.23;;;9.90;;
19396;SDS011;9834;48.076;11.878;2023-05-16T12:58:06;8.73;;;7.87;;
19396;SDS011;9834;48.076;11.878;2023-05-16T13:00:34;12.90;;;8.40;;
19396;SDS011;9834;48.076;11.878;2023-05-16T13:03:01;9.70;;;8.33;;
19396;SDS011;9834;48.076;11.878;2023-05-16T13:05:29;8.97;;;7.20;;
19396;SDS011;9834;48.076;11.878;2023-05-16T13:07:56;9.40;;;7.90;;
19396;SDS011;9834;48.076;11.878;2023-05-16T13:10:23;9.13;;;7.30;;
19396;SDS011;9834;48.076;11.878;2023-05-16T13:12:50;10.03;;;8.27;;
19396;SDS011;9834;48.076;11.878;2023-05-16T13:15:19;9.60;;;7.03;;
19396;SDS011;9834;48.076;11.878;2023-05-16T13:17:46;11.37;;;6.47;;
19396;SDS011;9834;48.076;11.878;2023-05-16T13:20:13;7.47;;;6.77;;
19396;SDS011;9834;48.076;11.878;2023-05-16T13:22:40;7.60;;;6.90;;
19396;SDS011;9834;48.076;11.878;2023-05-16T13:25:08;6.67;;;6.07;;
19396;SDS011;9834;48.076;11.878;2023-05-16T13:27:36;9.70;;;7.83;;
19396;SDS011;9834;48.076;11.878;2023-05-16T13:30:03;11.13;;;7.23;;
19396;SDS011;9834;48.076;11.878;2023-05-16T13:32:32;9.13;;;6.93;;
19396;SDS011;9834;48.076;11.878;2023-05-16T13:35:00;8.03;;;6.60;;
19396;SDS011;9834;48.076;11.878;2023-05-16T13:37:28;6.57;;;5.97;;
19396;SDS011;9834;48.076;11.878;2023-05-16T13:39:54;11.03;;;7.70;;
19396;SDS011;9834;48.076;11.878;2023-05-16T13:42:22;9.33;;;7.03;;
19396;SDS011;9834;48.076;11.878;2023-05-16T13:44:49;9.37;;;7.07;;
19396;SDS011;9834;48.076;11.878;2023-05-16T13:47:16;8.97;;;8.10;;
19396;SDS011;9834;48.076;11.878;2023-05-16T13:49:44;10.17;;;6.90;;
19396;SDS011;9834;48.076;11.878;2023-05-16T13:52:11;9.80;;;8.03;;
19396;SDS011;9834;48.076;11.878;2023-05-16T13:54:39;9.10;;;7.53;;
19396;SDS011;9834;48.076;11.878;2023-05-16T13:57:06;9.90;;;7.70;;
19396;SDS011;9834;48.076;11.878;2023-05-16T13:59:34;10.10;;;8.30;;
19396;SDS011;9834;48.076;11.878;2023-05-16T14:02:01;10.77;;;8.77;;
19396;SDS011;9834;48.076;11.878;2023-05-16T14:04:28;8.43;;;7.53;;
19396;SDS011;9834;48.076;11.878;2023-05-16T14:06:56;9.50;;;8.57;;
19396;SDS011;9834;48.076;11.878;2023-05-16T14:09:23;9.90;;;8.27;;
19396;SDS011;9834;48.076;11.878;2023-05-16T14:11:50;7.37;;;5.93;;
19396;SDS011;9834;48.076;11.878;2023-05-16T14:14:17;7.47;;;4.57;;
19396;SDS011;9834;48.076;11.878;2023-05-16T14:16:44;4.97;;;4.57;;
19396;SDS011;9834;48.076;11.878;2023-05-16T14:19:12;4.90;;;3.67;;
19396;SDS011;9834;48.076;11.878;2023-05-16T14:21:39;7.33;;;4.83;;
19396;SDS011;9834;48.076;11.878;2023-05-16T14:24:08;6.37;;;4.03;;
19396;SDS011;9834;48.076;11.878;2023-05-16T14:26:36;11.13;;;4.50;;
19396;SDS011;9834;48.076;11.878;2023-05-16T14:29:03;4.73;;;4.30;;
19396;SDS011;9834;48.076;11.878;2023-05-16T14:31:29;4.97;;;4.47;;
19396;SDS011;9834;48.076;11.878;2023-05-16T14:33:56;4.40;;;3.87;;
19396;SDS011;9834;48.076;11.878;2023-05-16T14:36:24;5.97;;;4.90;;
19396;SDS011;9834;48.076;11.878;2023-05-16T14:38:51;5.27;;;4.03;;
19396;SDS011;9834;48.076;11.878;2023-05-16T14:41:19;6.47;;;4.03;;
19396;SDS011;9834;48.076;11.878;2023-05-16T14:43:46;5.43;;;4.73;;
19396;SDS011;9834;48.076;11.878;2023-05-16T14:46:13;5.57;;;3.80;;
19396;SDS011;9834;48.076;11.878;2023-05-16T14:48:41;4.63;;;3.77;;
19396;SDS011;9834;48.076;11.878;2023-05-16T14:51:08;4.20;;;3.77;;
19396;SDS011;9834;48.076;11.878;2023-05-16T14:53:36;3.93;;;3.63;;
19396;SDS011;9834;48.076;11.878;2023-05-16T14:56:03;6.33;;;4.63;;
19396;SDS011;9834;48.076;11.878;2023-05-16T14:58:31;5.63;;;4.50;;